Time;durP1;ratioP1;P1;durP2;ratioP2;P2;SDS_P1;SDS_P2;PMS_P1;PMS_P2;Temp;Humidity;BMP_temperature;BMP_pressure;BME280_temperature;BME280_humidity;BME280_pressure;Samples;Min_cycle;Max_cycle;Signal;HPM_P1;HPM_P2
2022/09/26 00:01:15;;;;;;;28.00;5.22;;;;;;;13.03;100.00;99089.03;4935849;29;20094;-92
2022/09/26 00:03:43;;;;;;;15.55;3.47;;;;;;;13.28;100.00;99116.09;4934685;29;20066;-93
2022/09/26 00:06:11;;;;;;;17.35;4.97;;;;;;;13.29;100.00;99109.88;4934574;29;20048;-92
2022/09/26 00:08:39;;;;;;;17.75;4.20;;;;;;;13.36;100.00;99113.75;4928215;29;20059;-92
2022/09/26 00:11:08;;;;;;;16.42;3.90;;;;;;;13.28;100.00;99116.94;4919537;29;20091;-92
2022/09/26 00:13:37;;;;;;;24.15;5.43;;;;;;;13.25;100.00;99124.22;4937290;29;20063;-93
2022/09/26 00:16:05;;;;;;;31.85;6.28;;;;;;;12.64;100.00;99064.72;4936773;29;20052;-92
2022/09/26 00:18:32;;;;;;;18.92;4.50;;;;;;;12.80;100.00;99080.22;4931047;29;20064;-92
2022/09/26 00:21:13;;;;;;;19.35;3.95;;;;;;;13.04;100.00;99114.31;4929615;29;20103;-92
2022/09/26 00:23:43;;;;;;;21.45;3.75;;;;;;;12.78;100.00;99076.81;4924081;29;20111;-93
2022/09/26 00:26:11;;;;;;;25.20;6.72;;;;;;;12.80;100.00;99090.72;4937181;29;20055;-92
2022/09/26 00:28:39;;;;;;;24.52;4.95;;;;;;;12.60;100.00;99080.81;4936888;29;20182;-93
2022/09/26 00:31:12;;;;;;;20.30;4.97;;;;;;;12.81;100.00;99121.25;4937083;29;20619;-93
2022/09/26 00:33:39;;;;;;;22.70;5.53;;;;;;;12.38;100.00;99050.84;4933135;29;20052;-93
2022/09/26 00:36:06;;;;;;;22.70;5.15;;;;;;;12.74;100.00;99122.66;4937190;29;20102;-93
2022/09/26 00:38:34;;;;;;;25.70;5.80;;;;;;;12.44;100.00;99102.91;4934427;29;20056;-93
2022/09/26 00:41:00;;;;;;;22.58;5.30;;;;;;;12.35;100.00;99116.69;4937198;29;20059;-93
2022/09/26 00:43:44;;;;;;;34.10;5.43;;;;;;;12.51;100.00;99117.25;4937372;29;20060;-94
2022/09/26 00:46:14;;;;;;;32.30;6.63;;;;;;;12.24;100.00;99111.38;4931600;29;20048;-94
2022/09/26 00:48:45;;;;;;;22.42;4.90;;;;;;;12.24;100.00;99079.88;4934052;29;20499;-90
2022/09/26 00:51:12;;;;;;;23.92;5.18;;;;;;;12.14;100.00;99077.03;4935291;29;20599;-92
2022/09/26 00:53:44;;;;;;;24.20;4.97;;;;;;;12.32;100.00;99077.53;4936257;29;20336;-93
2022/09/26 00:56:16;;;;;;;23.60;5.20;;;;;;;12.43;100.00;99111.75;4922856;29;20110;-93
2022/09/26 00:58:55;;;;;;;29.10;5.88;;;;;;;12.24;100.00;99080.72;4926166;29;20056;-93
2022/09/26 01:01:22;;;;;;;20.88;4.70;;;;;;;12.40;100.00;99072.56;4932098;29;20055;-91
2022/09/26 01:03:50;;;;;;;21.73;5.03;;;;;;;12.43;100.00;99096.00;4932399;29;20054;-92
2022/09/26 01:06:18;;;;;;;27.48;6.50;;;;;;;12.17;100.00;99066.34;4925797;29;20111;-91
2022/09/26 01:08:52;;;;;;;22.13;5.10;;;;;;;12.23;100.00;99078.19;4929034;29;20068;-92
2022/09/26 01:11:19;;;;;;;21.88;5.15;;;;;;;12.49;100.00;99084.22;4931334;29;20051;-92
2022/09/26 01:13:47;;;;;;;21.20;5.72;;;;;;;12.51;100.00;99085.75;4935637;29;20055;-93
2022/09/26 01:16:14;;;;;;;25.92;6.25;;;;;;;12.38;100.00;99092.00;4937579;29;20562;-93
2022/09/26 01:18:42;;;;;;;21.50;5.70;;;;;;;12.16;100.00;99072.53;4936209;29;20090;-93
2022/09/26 01:21:23;;;;;;;34.92;7.03;;;;;;;12.48;100.00;99086.00;4935422;29;20498;-93
2022/09/26 01:23:50;;;;;;;20.50;5.40;;;;;;;12.72;100.00;99109.63;4935083;29;20051;-93
2022/09/26 01:26:44;;;;;;;30.65;6.75;;;;;;;12.52;100.00;99091.88;4935344;29;20127;-93
2022/09/26 01:29:32;;;;;;;30.25;6.65;;;;;;;12.27;100.00;99077.00;4935257;29;20078;-93
2022/09/26 01:35:20;;;;;;;23.35;5.22;;;;;;;12.16;100.00;99072.53;4936585;29;20059;-92
2022/09/26 01:37:58;;;;;;;23.05;4.72;;;;;;;12.52;100.00;99112.88;4935437;29;20097;-93
2022/09/26 01:40:44;;;;;;;36.88;7.25;;;;;;;12.01;100.00;99113.81;4931033;29;20645;-92
2022/09/26 01:43:46;;;;;;;22.48;5.10;;;;;;;12.12;100.00;99113.06;4931420;29;20410;-91
2022/09/26 01:46:32;;;;;;;29.83;6.07;;;;;;;11.80;100.00;99107.38;4897916;29;20044;-91
2022/09/26 01:49:08;;;;;;;25.60;5.28;;;;;;;11.76;100.00;99106.75;4929661;29;20520;-91
2022/09/26 01:51:49;;;;;;;21.58;5.45;;;;;;;11.65;100.00;99088.28;4931141;29;20048;-91
2022/09/26 01:54:23;;;;;;;26.83;4.88;;;;;;;11.21;100.00;99078.09;4933251;29;20052;-91
2022/09/26 01:56:56;;;;;;;17.30;3.65;;;;;;;11.45;100.00;99085.22;4933499;29;20599;-92
2022/09/26 01:59:29;;;;;;;23.50;5.20;;;;;;;11.26;100.00;99071.69;4933762;29;20058;-91
2022/09/26 02:02:01;;;;;;;17.33;4.00;;;;;;;11.48;100.00;99089.44;4923313;29;20063;-91
2022/09/26 02:04:35;;;;;;;15.73;3.45;;;;;;;11.61;100.00;99092.91;4933430;29;20074;-91
2022/09/26 02:07:17;;;;;;;18.38;3.92;;;;;;;11.53;100.00;99096.06;4934843;29;20494;-92
2022/09/26 02:09:50;;;;;;;20.80;3.78;;;;;;;11.31;100.00;99069.59;4924595;29;20106;-92
2022/09/26 02:12:31;;;;;;;25.45;4.57;;;;;;;11.17;100.00;99102.81;4933706;29;20055;-91
2022/09/26 02:15:03;;;;;;;22.20;5.03;;;;;;;11.40;100.00;99109.16;4931792;29;20047;-91
2022/09/26 02:30:39;;;;;;;25.45;5.53;;;;;;;11.20;100.00;99086.03;5090775;27;20383;-92
2022/09/26 02:33:05;;;;;;;16.63;4.00;;;;;;;11.15;100.00;99088.97;5089492;28;20097;-91
2022/09/26 02:38:22;;;;;;;20.02;4.03;;;;;;;11.18;100.00;99093.16;5090252;28;20044;-92
2022/09/26 02:41:07;;;;;;;20.38;4.40;;;;;;;11.23;100.00;99113.84;5082968;28;20106;-91
2022/09/26 02:43:59;;;;;;;21.50;3.72;;;;;;;11.49;100.00;99133.91;5074018;28;20049;-91
2022/09/26 02:46:53;;;;;;;16.45;3.63;;;;;;;11.17;100.00;99131.63;5071380;28;20048;-91
2022/09/26 02:49:28;;;;;;;17.30;3.47;;;;;;;11.15;100.00;99111.69;5087137;28;20495;-91
2022/09/26 02:52:07;;;;;;;26.45;4.10;;;;;;;11.26;100.00;99139.81;5087991;28;20105;-91
2022/09/26 02:55:05;;;;;;;21.75;3.00;;;;;;;11.17;100.00;99121.16;5089279;28;20125;-91
2022/09/26 02:58:14;;;;;;;13.20;3.20;;;;;;;11.31;100.00;99142.97;5088227;28;20113;-91
2022/09/26 03:01:01;;;;;;;15.82;3.28;;;;;;;11.13;100.00;99150.25;5071230;28;20052;-92
2022/09/26 03:03:52;;;;;;;16.08;3.13;;;;;;;11.10;100.00;99129.50;5052465;28;20052;-92
2022/09/26 03:06:25;;;;;;;18.20;3.50;;;;;;;11.01;100.00;99152.75;5088107;28;20048;-92
2022/09/26 03:08:55;;;;;;;14.88;3.35;;;;;;;11.05;100.00;99150.78;5087832;28;20441;-91
2022/09/26 03:11:24;;;;;;;23.98;5.18;;;;;;;10.63;100.00;99129.00;5080300;28;20040;-92
2022/09/26 03:13:53;;;;;;;17.58;3.28;;;;;;;10.87;100.00;99131.84;5087380;28;20052;-92
2022/09/26 03:16:22;;;;;;;15.30;3.08;;;;;;;10.76;100.00;99136.91;5088233;28;20056;-92
2022/09/26 03:18:59;;;;;;;15.73;2.65;;;;;;;10.81;100.00;99153.16;5073052;28;20040;-92
2022/09/26 03:21:26;;;;;;;13.35;3.50;;;;;;;10.28;100.00;99092.78;5088344;28;20482;-92
2022/09/26 03:23:56;;;;;;;17.35;2.70;;;;;;;10.43;100.00;99127.66;5088278;28;20048;-92
2022/09/26 03:26:26;;;;;;;11.55;2.85;;;;;;;10.58;100.00;99142.38;5087666;28;20056;-92
2022/09/26 03:28:55;;;;;;;14.10;3.63;;;;;;;10.51;100.00;99158.56;5092737;28;20047;-92
2022/09/26 03:31:24;;;;;;;20.50;3.88;;;;;;;10.36;100.00;99150.75;5095460;28;20048;-92
2022/09/26 03:33:51;;;;;;;13.93;2.88;;;;;;;10.55;100.00;99152.19;5093755;28;20048;-91
2022/09/26 03:36:21;;;;;;;17.75;3.75;;;;;;;10.42;100.00;99125.97;5094658;28;20059;-91
2022/09/26 03:38:48;;;;;;;14.25;3.38;;;;;;;10.25;100.00;99106.91;5094175;28;20051;-91
2022/09/26 03:41:14;;;;;;;17.13;3.42;;;;;;;10.02;100.00;99102.25;5093541;28;20136;-91
2022/09/26 03:43:42;;;;;;;26.80;3.58;;;;;;;10.21;100.00;99155.09;5092955;28;20052;-91
2022/09/26 03:46:11;;;;;;;21.02;4.78;;;;;;;10.16;100.00;99165.00;5094366;28;20086;-91
2022/09/26 03:48:38;;;;;;;18.95;3.67;;;;;;;10.41;100.00;99190.56;5090094;28;20123;-90
2022/09/26 03:51:08;;;;;;;17.13;4.38;;;;;;;10.15;100.00;99189.47;5094177;28;20048;-89
2022/09/26 03:53:38;;;;;;;16.05;3.38;;;;;;;10.22;100.00;99182.13;5091181;28;20051;-90
2022/09/26 03:56:13;;;;;;;20.88;3.90;;;;;;;10.02;100.00;99178.94;5093203;28;20478;-89
2022/09/26 03:58:41;;;;;;;17.92;3.42;;;;;;;9.97;100.00;99174.88;5088977;28;20052;-89
2022/09/26 04:01:12;;;;;;;22.95;3.85;;;;;;;9.95;100.00;99193.31;5093374;28;20051;-91
2022/09/26 04:03:41;;;;;;;18.98;3.05;;;;;;;10.09;100.00;99189.84;5083907;28;20127;-91
2022/09/26 04:06:19;;;;;;;21.45;4.45;;;;;;;10.18;100.00;99191.06;5094882;28;20478;-92
2022/09/26 04:08:49;;;;;;;18.27;3.95;;;;;;;10.02;100.00;99181.53;5077195;28;20470;-92
2022/09/26 04:11:21;;;;;;;20.70;3.58;;;;;;;9.74;100.00;99157.97;5085265;28;20102;-91
2022/09/26 04:13:49;;;;;;;28.80;5.32;;;;;;;10.07;100.00;99196.94;5092659;28;20079;-90
2022/09/26 04:16:21;;;;;;;17.77;3.63;;;;;;;10.00;100.00;99183.38;5082935;28;20052;-90
2022/09/26 04:18:49;;;;;;;32.72;5.00;;;;;;;10.02;100.00;99192.00;5088394;28;20135;-89
2022/09/26 04:21:16;;;;;;;20.77;4.85;;;;;;;9.81;100.00;99185.41;5093362;28;20113;-88
2022/09/26 04:23:43;;;;;;;20.58;4.38;;;;;;;9.83;100.00;99178.34;5093019;28;20056;-90
2022/09/26 04:26:13;;;;;;;22.10;4.00;;;;;;;9.93;100.00;99225.69;5092898;28;20051;-91
2022/09/26 04:28:49;;;;;;;19.67;4.85;;;;;;;9.71;100.00;99164.22;5090445;28;20040;-90
2022/09/26 04:31:16;;;;;;;20.52;4.22;;;;;;;9.69;100.00;99168.69;5092442;28;20081;-92
2022/09/26 04:33:43;;;;;;;15.18;2.72;;;;;;;10.09;100.00;99216.00;5090381;28;20063;-90
2022/09/26 04:36:12;;;;;;;16.02;3.90;;;;;;;9.93;100.00;99208.22;5093644;28;20040;-90
2022/09/26 04:38:39;;;;;;;22.25;3.50;;;;;;;9.67;100.00;99170.56;5093385;28;20412;-91
2022/09/26 04:41:15;;;;;;;18.52;3.45;;;;;;;10.35;100.00;99253.69;5093556;28;20052;-90
2022/09/26 04:43:42;;;;;;;26.65;4.55;;;;;;;10.17;100.00;99247.75;5092393;28;20439;-91
2022/09/26 04:46:12;;;;;;;17.40;3.50;;;;;;;10.24;100.00;99246.47;5094060;28;20375;-90
2022/09/26 04:48:47;;;;;;;19.67;3.38;;;;;;;10.24;100.00;99250.88;5081206;28;20441;-92
2022/09/26 04:51:15;;;;;;;24.55;5.35;;;;;;;9.99;100.00;99222.72;5078654;28;20052;-91
2022/09/26 04:53:42;;;;;;;18.80;3.60;;;;;;;10.25;100.00;99257.75;5092704;28;20492;-91
2022/09/26 04:56:12;;;;;;;18.30;3.38;;;;;;;9.76;100.00;99174.41;5092236;28;20059;-92
2022/09/26 04:58:40;;;;;;;18.92;2.97;;;;;;;10.33;100.00;99259.97;5094419;28;20089;-91
2022/09/26 05:01:10;;;;;;;21.80;3.75;;;;;;;10.33;100.00;99263.41;5092790;28;20098;-91
2022/09/26 05:03:38;;;;;;;15.93;2.75;;;;;;;10.40;100.00;99254.25;5092114;28;20098;-91
2022/09/26 05:06:07;;;;;;;22.75;3.95;;;;;;;10.38;100.00;99237.81;5092747;28;20048;-91
2022/09/26 05:08:40;;;;;;;17.73;3.38;;;;;;;10.35;100.00;99253.69;5077665;28;20466;-91
2022/09/26 05:11:08;;;;;;;23.73;5.28;;;;;;;10.15;100.00;99251.41;5092399;28;20044;-91
2022/09/26 05:13:36;;;;;;;18.92;3.97;;;;;;;10.34;100.00;99261.63;5093356;28;20052;-92
2022/09/26 05:16:07;;;;;;;23.15;4.82;;;;;;;10.37;100.00;99296.31;5084005;28;20465;-91
2022/09/26 05:18:35;;;;;;;19.42;3.47;;;;;;;10.10;100.00;99274.38;5087585;28;20055;-90
2022/09/26 05:21:04;;;;;;;19.35;3.53;;;;;;;9.79;100.00;99302.28;5091557;28;20052;-90
2022/09/26 05:26:26;;;;;;;14.95;3.22;;;;;;;9.60;100.00;99274.59;5087631;28;20118;-90
2022/09/26 05:28:55;;;;;;;17.10;2.88;;;;;;;9.44;100.00;99252.91;5084682;28;20052;-89
2022/09/26 05:31:24;;;;;;;14.20;3.08;;;;;;;9.58;100.00;99296.50;5091304;28;20048;-90
2022/09/26 05:33:51;;;;;;;11.38;2.47;;;;;;;9.50;100.00;99282.09;5084330;28;20097;-90
2022/09/26 05:36:18;;;;;;;15.48;3.03;;;;;;;9.83;100.00;99315.13;5080313;28;20053;-91
2022/09/26 05:38:45;;;;;;;19.05;3.45;;;;;;;9.65;100.00;99288.25;5086657;28;20101;-91
2022/09/26 05:41:13;;;;;;;11.55;2.58;;;;;;;9.85;100.00;99309.81;5078308;28;20052;-91
2022/09/26 05:43:40;;;;;;;19.77;4.30;;;;;;;9.68;100.00;99321.19;5089993;28;20056;-90
2022/09/26 05:46:09;;;;;;;18.77;3.40;;;;;;;9.51;100.00;99293.41;5077136;28;20052;-90
2022/09/26 05:48:37;;;;;;;11.57;2.63;;;;;;;9.50;100.00;99300.41;5082628;28;20078;-90
2022/09/26 05:51:10;;;;;;;16.52;3.03;;;;;;;9.44;100.00;99297.31;5078409;28;20044;-91
2022/09/26 05:53:38;;;;;;;10.98;3.25;;;;;;;9.94;100.00;99322.34;5076569;28;20125;-91
2022/09/26 05:56:06;;;;;;;13.65;2.40;;;;;;;9.73;100.00;99337.47;5087243;28;20058;-91
2022/09/26 05:58:35;;;;;;;10.00;2.42;;;;;;;9.53;100.00;99315.06;5089000;28;20048;-90
2022/09/26 06:01:08;;;;;;;12.52;3.20;;;;;;;9.64;100.00;99322.31;5073682;28;20053;-91
2022/09/26 06:03:35;;;;;;;9.98;2.50;;;;;;;9.61;100.00;99344.22;5088006;28;20044;-89
2022/09/26 06:06:03;;;;;;;12.82;2.95;;;;;;;9.54;100.00;99337.66;5084548;28;20078;-89
2022/09/26 06:08:31;;;;;;;12.55;2.90;;;;;;;9.29;100.00;99278.91;5103906;28;20052;-89
2022/09/26 06:11:07;;;;;;;17.30;2.80;;;;;;;9.52;100.00;99323.00;5091495;28;20045;-87
2022/09/26 06:13:36;;;;;;;11.88;1.80;;;;;;;9.31;100.00;99297.13;5084694;28;20052;-89
2022/09/26 06:16:06;;;;;;;8.85;2.22;;;;;;;9.36;100.00;99355.19;5104914;28;20058;-86
2022/09/26 06:18:36;;;;;;;8.13;1.90;;;;;;;9.27;100.00;99342.63;5120246;28;20040;-89
2022/09/26 06:21:10;;;;;;;8.90;1.88;;;;;;;9.25;100.00;99318.38;5106567;28;20066;-89
2022/09/26 06:23:42;;;;;;;12.07;2.20;;;;;;;9.49;100.00;99331.84;5095066;28;20057;-92
2022/09/26 06:26:27;;;;;;;11.55;2.25;;;;;;;9.23;100.00;99310.63;5109796;28;20047;-90
2022/09/26 06:29:09;;;;;;;9.85;2.08;;;;;;;9.46;100.00;99345.09;5110682;28;20044;-91
2022/09/26 06:31:50;;;;;;;15.88;2.38;;;;;;;9.53;100.00;99348.22;5107759;28;20044;-87
2022/09/26 06:34:31;;;;;;;8.85;1.60;;;;;;;9.74;100.00;99360.06;5109125;28;20032;-90
2022/09/26 06:37:11;;;;;;;7.13;1.90;;;;;;;9.70;100.00;99366.38;5111152;28;20052;-87
2022/09/26 06:39:52;;;;;;;11.52;2.45;;;;;;;9.73;100.00;99360.16;5081378;28;20023;-90
2022/09/26 06:42:37;;;;;;;8.50;1.67;;;;;;;9.57;100.00;99350.56;5092075;28;20071;-90
2022/09/26 06:45:10;;;;;;;8.27;2.00;;;;;;;9.20;100.00;99330.84;5105466;28;20064;-88
2022/09/26 06:47:37;;;;;;;13.73;2.70;;;;;;;9.36;100.00;99376.09;5092212;28;20049;-87
2022/09/26 06:50:18;;;;;;;10.18;1.95;;;;;;;9.09;100.00;99340.09;5118526;28;20071;-90
2022/09/26 06:53:03;;;;;;;14.20;2.33;;;;;;;9.33;100.00;99365.81;5107390;28;20088;-89
2022/09/26 06:55:35;;;;;;;7.47;1.95;;;;;;;9.40;100.00;99367.16;5104624;28;20070;-90
2022/09/26 06:58:05;;;;;;;8.13;2.03;;;;;;;9.61;100.00;99375.56;5108165;28;20051;-90
2022/09/26 07:00:34;;;;;;;8.85;1.60;;;;;;;9.49;100.00;99353.59;5101439;28;20044;-91
2022/09/26 07:03:01;;;;;;;7.25;1.70;;;;;;;9.35;100.00;99336.97;5096566;28;20059;-90
2022/09/26 07:05:28;;;;;;;10.63;1.98;;;;;;;9.58;100.00;99378.38;5088846;28;20470;-91
2022/09/26 07:07:56;;;;;;;7.93;1.67;;;;;;;9.46;100.00;99350.31;5087565;28;20051;-90
2022/09/26 07:10:24;;;;;;;8.50;1.50;;;;;;;9.46;100.00;99352.94;5088555;28;20047;-91
2022/09/26 07:12:52;;;;;;;10.52;1.63;;;;;;;9.68;100.00;99358.66;5081961;28;20699;-90
2022/09/26 07:15:19;;;;;;;8.52;1.63;;;;;;;9.37;100.00;99351.66;5082233;28;20098;-90
2022/09/26 07:17:47;;;;;;;5.07;1.35;;;;;;;9.80;100.00;99366.72;5085072;28;20070;-91
2022/09/26 07:20:16;;;;;;;13.88;1.70;;;;;;;9.94;100.00;99366.78;5090577;28;20048;-90
2022/09/26 07:22:43;;;;;;;10.88;2.25;;;;;;;9.82;100.00;99339.56;5083138;28;20391;-90
2022/09/26 07:25:11;;;;;;;8.38;1.70;;;;;;;10.12;100.00;99364.06;5082833;28;20060;-89
2022/09/26 07:27:39;;;;;;;5.88;1.40;;;;;;;9.99;100.00;99312.47;5091582;28;20109;-90
2022/09/26 07:30:07;;;;;;;7.30;1.58;;;;;;;10.48;100.00;99368.94;5090234;28;20055;-90
2022/09/26 07:32:35;;;;;;;9.70;1.45;;;;;;;10.61;100.00;99363.84;5094519;28;20056;-91
2022/09/26 07:35:02;;;;;;;8.82;2.00;;;;;;;11.00;100.00;99385.94;5088603;28;20514;-91
2022/09/26 07:37:30;;;;;;;11.25;2.30;;;;;;;9.82;100.00;99357.03;5093907;28;20051;-91
2022/09/26 07:39:57;;;;;;;10.48;1.80;;;;;;;10.12;100.00;99396.28;5082332;28;20433;-91
2022/09/26 07:42:27;;;;;;;7.63;1.50;;;;;;;10.16;100.00;99379.47;5087514;28;20134;-90
2022/09/26 07:44:54;;;;;;;10.70;2.03;;;;;;;9.88;100.00;99320.09;5111092;27;20048;-90
2022/09/26 07:50:32;;;;;;;10.90;1.80;;;;;;;9.82;100.00;99368.31;5087243;28;20064;-91
2022/09/26 07:52:59;;;;;;;8.65;1.95;;;;;;;10.19;100.00;99384.53;5082882;28;20048;-91
2022/09/26 07:55:29;;;;;;;6.65;1.35;;;;;;;9.84;100.00;99336.84;5109967;27;20053;-90
2022/09/26 07:57:59;;;;;;;7.10;1.60;;;;;;;10.20;100.00;99356.63;5084590;28;20044;-89
2022/09/26 08:00:30;;;;;;;8.55;1.73;;;;;;;10.28;100.00;99359.59;5093897;28;20044;-90
2022/09/26 08:03:00;;;;;;;6.95;2.67;;;;;;;10.59;100.00;99404.97;5084856;28;20051;-90
2022/09/26 08:05:28;;;;;;;8.73;1.70;;;;;;;10.31;100.00;99335.06;5081046;28;20127;-90
2022/09/26 08:07:56;;;;;;;8.70;1.75;;;;;;;10.63;100.00;99406.47;5082664;28;20139;-91
2022/09/26 08:10:23;;;;;;;9.10;1.90;;;;;;;10.46;100.00;99389.13;5085295;28;20056;-90
2022/09/26 08:12:50;;;;;;;10.85;1.90;;;;;;;10.68;100.00;99366.91;5092066;28;20052;-90
2022/09/26 08:15:16;;;;;;;13.95;2.20;;;;;;;10.76;100.00;99414.41;5083793;28;20503;-90
2022/09/26 08:17:43;;;;;;;10.77;2.40;;;;;;;10.65;100.00;99417.69;5080347;28;20040;-88
2022/09/26 08:20:10;;;;;;;10.13;2.45;;;;;;;10.51;100.00;99426.34;5096193;28;20130;-88
2022/09/26 08:22:37;;;;;;;13.00;1.90;;;;;;;10.40;100.00;99420.88;5097470;28;20043;-89
2022/09/26 08:25:06;;;;;;;8.55;2.05;;;;;;;10.42;100.00;99412.00;5087190;28;20061;-89
2022/09/26 08:27:33;;;;;;;11.07;2.53;;;;;;;10.64;100.00;99445.63;5088673;28;20052;-90
2022/09/26 08:30:03;;;;;;;9.27;2.10;;;;;;;9.78;100.00;99374.66;5085772;28;20095;-90
2022/09/26 08:32:31;;;;;;;13.77;2.85;;;;;;;10.10;100.00;99371.97;5091649;28;20048;-89
2022/09/26 08:34:58;;;;;;;7.10;1.90;;;;;;;10.58;100.00;99411.94;5072651;28;20087;-88
2022/09/26 08:37:26;;;;;;;11.27;2.08;;;;;;;10.40;100.00;99429.56;5083056;28;20048;-92
2022/09/26 08:39:53;;;;;;;15.18;2.17;;;;;;;10.57;100.00;99370.16;5093614;28;20055;-92
2022/09/26 08:42:44;;;;;;;9.75;1.58;;;;;;;11.02;100.00;99437.28;5081855;28;20048;-92
2022/09/26 08:48:27;;;;;;;8.73;1.75;;;;;;;11.66;100.00;99444.75;5095303;28;20444;-92
2022/09/26 08:51:00;;;;;;;15.40;2.50;;;;;;;11.65;100.00;99439.59;5094951;28;20048;-91
2022/09/26 08:53:39;;;;;;;9.27;2.00;;;;;;;11.01;100.00;99432.97;5094452;28;20048;-92
2022/09/26 08:56:18;;;;;;;10.77;2.03;;;;;;;10.70;100.00;99404.31;5092539;28;20047;-89
2022/09/26 08:58:50;;;;;;;11.30;2.20;;;;;;;10.36;100.00;99433.31;5093358;28;20583;-90
2022/09/26 09:01:27;;;;;;;11.85;2.30;;;;;;;10.48;100.00;99394.25;5098240;28;20464;-90
2022/09/26 09:04:05;;;;;;;12.60;2.78;;;;;;;10.99;100.00;99424.34;5085526;28;20055;-90
2022/09/26 09:06:33;;;;;;;13.90;2.63;;;;;;;10.95;100.00;99380.97;5083645;28;20416;-91
2022/09/26 09:09:00;;;;;;;15.10;2.75;;;;;;;11.13;100.00;99435.78;5085490;28;20059;-90
2022/09/26 09:12:00;;;;;;;11.43;2.97;;;;;;;11.07;100.00;99400.34;5085251;28;20636;-91
2022/09/26 09:14:47;;;;;;;10.88;2.15;;;;;;;11.68;100.00;99440.22;5087627;28;20075;-90
2022/09/26 09:17:47;;;;;;;9.15;2.15;;;;;;;11.18;100.00;99457.31;5089278;28;20138;-90
2022/09/26 09:20:37;;;;;;;12.73;1.92;;;;;;;11.26;100.00;99435.88;5091039;28;20052;-90
2022/09/26 09:23:20;;;;;;;13.13;2.17;;;;;;;10.92;100.00;99428.28;5086347;28;20056;-89
2022/09/26 09:26:07;;;;;;;9.30;1.92;;;;;;;11.35;100.00;99458.88;5084229;28;20058;-89
2022/09/26 09:29:43;;;;;;;12.85;2.17;;;;;;;11.10;100.00;99465.66;5090654;28;20079;-90
2022/09/26 09:32:18;;;;;;;7.63;2.25;;;;;;;11.77;100.00;99441.44;5060028;28;20495;-89
2022/09/26 09:34:48;;;;;;;11.02;2.00;;;;;;;11.92;100.00;99445.75;5088991;28;20101;-90
2022/09/26 09:37:36;;;;;;;14.90;2.35;;;;;;;12.70;100.00;99462.59;5079230;28;20102;-90
2022/09/26 09:40:11;;;;;;;10.95;2.65;;;;;;;11.85;100.00;99446.22;5083029;28;20057;-89
2022/09/26 09:43:02;;;;;;;14.48;2.50;;;;;;;11.67;100.00;99408.88;5091321;28;20048;-89
2022/09/26 09:45:43;;;;;;;9.82;1.80;;;;;;;10.96;100.00;99421.06;5090527;28;20048;-90
2022/09/26 09:48:14;;;;;;;12.85;2.28;;;;;;;11.07;100.00;99457.13;5090658;28;20202;-89
2022/09/26 09:51:23;;;;;;;10.05;2.00;;;;;;;11.26;100.00;99477.78;5082590;28;20044;-94
2022/09/26 09:54:08;;;;;;;8.52;1.77;;;;;;;11.12;100.00;99471.63;5080025;28;20044;-92
2022/09/26 09:56:57;;;;;;;10.10;1.90;;;;;;;11.63;100.00;99465.06;5087697;28;20059;-92
2022/09/26 09:59:44;;;;;;;8.75;1.83;;;;;;;11.24;100.00;99470.03;5083574;28;20044;-92
2022/09/26 10:02:18;;;;;;;9.63;1.75;;;;;;;11.00;100.00;99433.91;5082995;28;20122;-91
2022/09/26 10:04:48;;;;;;;;;;;;;;;11.33;100.00;99477.34;5078862;28;20048;-92
2022/09/26 10:07:15;;;;;;;12.20;1.92;;;;;;;10.43;100.00;99445.09;5114338;27;19921;-92
2022/09/26 10:09:45;;;;;;;15.63;2.40;;;;;;;10.59;100.00;99439.81;5080638;28;20098;-92
2022/09/26 10:12:18;;;;;;;11.32;2.28;;;;;;;10.56;100.00;99444.41;5090656;28;20058;-91
2022/09/26 10:14:51;;;;;;;11.70;1.95;;;;;;;11.01;100.00;99439.97;5084824;28;20114;-93
2022/09/26 10:17:22;;;;;;;9.45;2.03;;;;;;;11.31;100.00;99389.28;5080302;28;20070;-93
2022/09/26 10:19:49;;;;;;;8.43;1.75;;;;;;;11.62;100.00;99451.13;5090471;28;20048;-93
2022/09/26 10:45:28;;;;;;;7.38;1.73;;;;;;;12.21;100.00;99448.28;5057930;28;20617;-93
2022/09/26 10:48:49;;;;;;;11.73;2.13;;;;;;;12.83;100.00;99468.69;5041000;28;20053;-92
2022/09/26 11:32:52;;;;;;;6.03;1.48;;;;;;;11.26;100.00;99276.03;5101463;28;20128;-89
2022/09/26 11:35:43;;;;;;;7.05;1.45;;;;;;;12.82;100.00;99401.34;5097092;28;20394;-92
2022/09/26 11:50:39;;;;;;;8.25;1.52;;;;;;;11.99;100.00;99427.84;5114409;28;20124;-91
2022/09/26 11:53:56;;;;;;;8.57;1.60;;;;;;;10.85;100.00;99318.78;5096708;28;20478;-91
2022/09/26 11:56:41;;;;;;;7.93;1.45;;;;;;;11.79;100.00;99442.19;5078434;28;20085;-91
2022/09/26 11:59:38;;;;;;;6.65;2.30;;;;;;;11.70;100.00;99451.47;5094486;28;20059;-87
2022/09/26 12:02:31;;;;;;;10.68;1.85;;;;;;;12.00;100.00;99468.84;5086401;28;20044;-89
2022/09/26 12:05:01;;;;;;;9.30;1.87;;;;;;;11.22;100.00;99414.25;5087264;28;20086;-85
2022/09/26 12:08:05;;;;;;;10.68;2.10;;;;;;;11.96;100.00;99454.25;5082224;28;20410;-84
2022/09/26 12:10:52;;;;;;;14.30;2.08;;;;;;;12.48;100.00;99458.78;5089727;28;20056;-83
2022/09/26 12:13:37;;;;;;;13.75;2.20;;;;;;;12.75;100.00;99462.25;5090895;28;20048;-83
2022/09/26 12:16:21;;;;;;;10.68;2.03;;;;;;;12.58;100.00;99451.09;5090212;28;20070;-85
2022/09/26 12:19:13;;;;;;;26.40;3.35;;;;;;;11.96;100.00;99434.09;5098688;28;20394;-86
2022/09/26 12:24:48;;;;;;;12.02;2.40;;;;;;;12.41;100.00;99465.38;5080542;28;20551;-85
2022/09/26 12:27:32;;;;;;;12.30;2.47;;;;;;;12.79;100.00;99474.28;5085573;28;20486;-84
2022/09/26 12:30:16;;;;;;;12.18;2.67;;;;;;;12.37;100.00;99484.03;5084644;28;20052;-85
2022/09/26 12:32:55;;;;;;;16.58;2.78;;;;;;;12.49;100.00;99486.69;5101699;27;20075;-84
2022/09/26 12:35:30;;;;;;;10.45;3.15;;;;;;;12.24;100.00;99478.75;5079961;28;20466;-84
2022/09/26 12:38:15;;;;;;;13.45;2.47;;;;;;;12.42;100.00;99500.31;5082276;28;20048;-84
2022/09/26 12:40:54;;;;;;;12.00;2.38;;;;;;;12.35;100.00;99492.84;5085780;28;20052;-84
2022/09/26 12:43:58;;;;;;;9.75;2.20;;;;;;;12.40;100.00;99496.97;5081271;28;20097;-85
2022/09/26 12:46:44;;;;;;;;;;;;;;;12.25;100.00;99504.03;5083290;28;20398;-84
2022/09/26 12:49:42;;;;;;;14.52;2.70;;;;;;;12.56;100.00;99495.00;5086925;28;19927;-84
2022/09/26 12:52:29;;;;;;;12.73;2.10;;;;;;;12.43;100.00;99486.25;5085437;28;20110;-84
2022/09/26 12:55:26;;;;;;;12.43;2.30;;;;;;;12.80;100.00;99478.56;5085837;28;20102;-84
2022/09/26 12:57:59;;;;;;;12.55;2.83;;;;;;;13.03;100.00;99483.13;5074116;28;20478;-84
2022/09/26 13:00:35;;;;;;;17.50;2.10;;;;;;;12.46;100.00;99484.25;5081052;28;20497;-85
2022/09/26 13:03:20;;;;;;;8.07;1.88;;;;;;;11.29;100.00;99494.19;5082192;28;20110;-85
2022/09/26 13:06:02;;;;;;;7.70;1.80;;;;;;;11.07;100.00;99483.31;5081680;28;20391;-84
2022/09/26 13:08:56;;;;;;;13.60;3.05;;;;;;;11.66;100.00;99477.97;5085494;28;20474;-84
2022/09/26 13:11:29;;;;;;;14.45;1.95;;;;;;;11.63;100.00;99462.44;5110877;27;20052;-85
2022/09/26 13:14:20;;;;;;;10.63;2.53;;;;;;;11.76;100.00;99479.94;5076263;28;20044;-85
2022/09/26 13:17:08;;;;;;;10.88;2.05;;;;;;;11.96;100.00;99480.50;5087985;28;20101;-85
2022/09/26 13:20:02;;;;;;;11.63;2.47;;;;;;;11.70;100.00;99484.72;5081132;28;20044;-85
2022/09/26 13:22:33;;;;;;;;;;;;;;;11.91;100.00;99482.56;5085159;28;20056;-86
2022/09/26 13:25:23;;;;;;;12.02;2.30;;;;;;;12.40;100.00;99486.47;5096757;27;19928;-84
2022/09/26 13:28:22;;;;;;;11.98;2.20;;;;;;;12.68;100.00;99462.69;5086254;28;20049;-86
2022/09/26 13:31:00;;;;;;;10.50;1.70;;;;;;;12.83;100.00;99475.75;5073788;28;20556;-84
2022/09/26 13:33:39;;;;;;;13.15;2.38;;;;;;;12.47;100.00;99493.81;5089520;28;20482;-84
2022/09/26 13:36:08;;;;;;;7.55;1.48;;;;;;;10.82;100.00;99503.09;5081029;28;20053;-84
2022/09/26 13:38:56;;;;;;;10.13;1.83;;;;;;;10.85;100.00;99510.75;5091656;28;20416;-83
2022/09/26 13:42:01;;;;;;;10.43;1.30;;;;;;;10.70;100.00;99495.94;5096972;28;20048;-84
2022/09/26 13:44:59;;;;;;;8.65;1.80;;;;;;;10.66;100.00;99487.44;5092266;28;20054;-84
2022/09/26 13:47:38;;;;;;;11.70;1.85;;;;;;;10.48;100.00;99504.19;5091327;28;20079;-84